LEAL/ALC METAR and TAF weather

Enter ICAO airport designator
Station Type Date Time Source
LEAL METAR 2020/11/27 02:00 UTC NOAA

LEAL 270200Z 07015KT 9999 FEW020 18/14 Q1009 TEMPO 4000 SHRA FEW015CB


Station Type Date Time Source
LEAL Decoded METAR 2020/11/27 02:00 UTC NOAA

Alicante / El Altet, Spain (LEAL) 38-17N 000-33W 31M
Nov 26, 2020 - 09:00 PM EST / 2020.11.27 0200 UTC
Wind: from the ENE (070 degrees) at 17 MPH (15 KT):0
Visibility: greater than 7 mile(s):0
Sky conditions: mostly clear
Weather: Cumulonimbus clouds observed
Temperature: 64 F (18 C)
Dew Point: 57 F (14 C)
Relative Humidity: 77%
Pressure (altimeter): 29.80 in. Hg (1009 hPa)
ob: LEAL 270200Z 07015KT 9999 FEW020 18/14 Q1009 TEMPO 4000 SHRA FEW015CB
cycle: 2

Station Type Date Time Source
LEAL TAF 2020/11/26 18:27 UTC NOAA

TAF TAF LEAL 261700Z 2618/2718 05009KT 9999 BKN025 TX20/2713Z TN13/2706Z PROB40
TEMPO 2700/2718 3000 +TSRA BKN014 FEW015CB

Example: see airport list